sensor_id;sensor_type;location;lat;lon;timestamp;temperature;humidity
48264;DHT22;34086;51.076;13.722;2023-02-16T00:00:48;0.90;99.90
48264;DHT22;34086;51.076;13.722;2023-02-16T00:01:49;0.90;99.90
48264;DHT22;34086;51.076;13.722;2023-02-16T00:02:50;0.90;99.90
48264;DHT22;34086;51.076;13.722;2023-02-16T00:03:51;0.90;99.90
48264;DHT22;34086;51.076;13.722;2023-02-16T00:04:52;0.90;99.90
48264;DHT22;34086;51.076;13.722;2023-02-16T00:05:52;0.90;99.90
48264;DHT22;34086;51.076;13.722;2023-02-16T00:06:54;0.80;99.90
48264;DHT22;34086;51.076;13.722;2023-02-16T00:07:56;0.80;99.90
48264;DHT22;34086;51.076;13.722;2023-02-16T00:08:56;0.80;99.90
48264;DHT22;34086;51.076;13.722;2023-02-16T00:09:57;0.80;99.90
48264;DHT22;34086;51.076;13.722;2023-02-16T00:10:57;0.90;99.90
48264;DHT22;34086;51.076;13.722;2023-02-16T00:12:18;0.90;99.90
48264;DHT22;34086;51.076;13.722;2023-02-16T00:13:39;0.90;99.90
48264;DHT22;34086;51.076;13.722;2023-02-16T00:14:52;0.90;99.90
48264;DHT22;34086;51.076;13.722;2023-02-16T00:15:52;0.90;99.90
48264;DHT22;34086;51.076;13.722;2023-02-16T00:16:55;0.90;99.90
48264;DHT22;34086;51.076;13.722;2023-02-16T00:17:58;0.90;99.90
48264;DHT22;34086;51.076;13.722;2023-02-16T00:18:59;0.90;99.90
48264;DHT22;34086;51.076;13.722;2023-02-16T00:20:00;0.80;99.90
48264;DHT22;34086;51.076;13.722;2023-02-16T00:21:01;0.80;99.90
48264;DHT22;34086;51.076;13.722;2023-02-16T00:22:01;0.80;99.90
48264;DHT22;34086;51.076;13.722;2023-02-16T00:23:02;0.80;99.90
48264;DHT22;34086;51.076;13.722;2023-02-16T00:24:03;0.70;99.90
48264;DHT22;34086;51.076;13.722;2023-02-16T00:25:04;0.70;99.90
48264;DHT22;34086;51.076;13.722;2023-02-16T00:26:05;0.70;99.90
48264;DHT22;34086;51.076;13.722;2023-02-16T00:27:15;0.70;99.90
48264;DHT22;34086;51.076;13.722;2023-02-16T00:28:19;0.70;99.90
48264;DHT22;34086;51.076;13.722;2023-02-16T00:29:24;0.70;99.90
48264;DHT22;34086;51.076;13.722;2023-02-16T00:30:25;0.70;99.90
48264;DHT22;34086;51.076;13.722;2023-02-16T00:31:28;0.70;99.90
48264;DHT22;34086;51.076;13.722;2023-02-16T00:32:31;0.70;99.90
48264;DHT22;34086;51.076;13.722;2023-02-16T00:33:32;0.70;99.90
48264;DHT22;34086;51.076;13.722;2023-02-16T00:34:35;0.70;99.90
48264;DHT22;34086;51.076;13.722;2023-02-16T00:35:35;0.70;99.90
48264;DHT22;34086;51.076;13.722;2023-02-16T00:36:36;0.80;99.90
48264;DHT22;34086;51.076;13.722;2023-02-16T00:37:37;0.80;99.90
48264;DHT22;34086;51.076;13.722;2023-02-16T00:38:37;0.80;99.90
48264;DHT22;34086;51.076;13.722;2023-02-16T00:39:39;0.80;99.90
48264;DHT22;34086;51.076;13.722;2023-02-16T00:40:41;0.80;99.90
48264;DHT22;34086;51.076;13.722;2023-02-16T00:41:41;0.80;99.90
48264;DHT22;34086;51.076;13.722;2023-02-16T00:42:53;0.80;99.90
48264;DHT22;34086;51.076;13.722;2023-02-16T00:43:55;0.70;99.90
48264;DHT22;34086;51.076;13.722;2023-02-16T00:44:57;0.70;99.90
48264;DHT22;34086;51.076;13.722;2023-02-16T00:45:58;0.70;99.90
48264;DHT22;34086;51.076;13.722;2023-02-16T00:47:22;0.70;99.90
48264;DHT22;34086;51.076;13.722;2023-02-16T00:48:26;0.80;99.90
48264;DHT22;34086;51.076;13.722;2023-02-16T00:49:27;0.70;99.90
48264;DHT22;34086;51.076;13.722;2023-02-16T00:50:30;0.70;99.90
48264;DHT22;34086;51.076;13.722;2023-02-16T00:51:31;0.70;99.90
48264;DHT22;34086;51.076;13.722;2023-02-16T00:52:34;0.70;99.90
48264;DHT22;34086;51.076;13.722;2023-02-16T00:53:34;0.70;99.90
48264;DHT22;34086;51.076;13.722;2023-02-16T00:54:35;0.70;99.90
48264;DHT22;34086;51.076;13.722;2023-02-16T00:55:36;0.70;99.90
48264;DHT22;34086;51.076;13.722;2023-02-16T00:56:39;0.70;99.90
48264;DHT22;34086;51.076;13.722;2023-02-16T00:59:07;0.70;99.90
48264;DHT22;34086;51.076;13.722;2023-02-16T01:00:13;0.70;99.90
48264;DHT22;34086;51.076;13.722;2023-02-16T01:01:15;0.70;99.90
48264;DHT22;34086;51.076;13.722;2023-02-16T01:02:20;0.70;99.90
48264;DHT22;34086;51.076;13.722;2023-02-16T01:03:27;0.70;99.90
48264;DHT22;34086;51.076;13.722;2023-02-16T01:04:28;0.70;99.90
48264;DHT22;34086;51.076;13.722;2023-02-16T01:05:29;0.70;99.90
48264;DHT22;34086;51.076;13.722;2023-02-16T01:06:32;0.70;99.90
48264;DHT22;34086;51.076;13.722;2023-02-16T01:07:51;0.70;99.90
48264;DHT22;34086;51.076;13.722;2023-02-16T01:09:13;0.70;99.90
48264;DHT22;34086;51.076;13.722;2023-02-16T01:10:34;0.60;99.90
48264;DHT22;34086;51.076;13.722;2023-02-16T01:11:53;0.60;99.90
48264;DHT22;34086;51.076;13.722;2023-02-16T01:12:54;0.60;99.90
48264;DHT22;34086;51.076;13.722;2023-02-16T01:13:55;0.60;99.90
48264;DHT22;34086;51.076;13.722;2023-02-16T01:14:57;0.70;99.90
48264;DHT22;34086;51.076;13.722;2023-02-16T01:15:58;0.60;99.90
48264;DHT22;34086;51.076;13.722;2023-02-16T01:17:02;0.60;99.90
48264;DHT22;34086;51.076;13.722;2023-02-16T01:18:04;0.60;99.90
48264;DHT22;34086;51.076;13.722;2023-02-16T01:19:05;0.60;99.90
48264;DHT22;34086;51.076;13.722;2023-02-16T01:20:17;0.50;99.90
48264;DHT22;34086;51.076;13.722;2023-02-16T01:21:19;0.50;99.90
48264;DHT22;34086;51.076;13.722;2023-02-16T01:22:21;0.50;99.90
48264;DHT22;34086;51.076;13.722;2023-02-16T01:23:21;0.50;99.90
48264;DHT22;34086;51.076;13.722;2023-02-16T01:24:22;0.50;99.90
48264;DHT22;34086;51.076;13.722;2023-02-16T01:25:22;0.50;99.90
48264;DHT22;34086;51.076;13.722;2023-02-16T01:26:23;0.50;99.90
48264;DHT22;34086;51.076;13.722;2023-02-16T01:27:24;0.60;99.90
48264;DHT22;34086;51.076;13.722;2023-02-16T01:28:25;0.50;99.90
48264;DHT22;34086;51.076;13.722;2023-02-16T01:29:25;0.60;99.90
48264;DHT22;34086;51.076;13.722;2023-02-16T01:30:26;0.60;99.90
48264;DHT22;34086;51.076;13.722;2023-02-16T01:31:27;0.60;99.90
48264;DHT22;34086;51.076;13.722;2023-02-16T01:32:28;0.60;99.90
48264;DHT22;34086;51.076;13.722;2023-02-16T01:33:28;0.60;99.90
48264;DHT22;34086;51.076;13.722;2023-02-16T01:34:29;0.60;99.90
48264;DHT22;34086;51.076;13.722;2023-02-16T01:35:32;0.60;99.90
48264;DHT22;34086;51.076;13.722;2023-02-16T01:36:36;0.60;99.90
48264;DHT22;34086;51.076;13.722;2023-02-16T01:37:40;0.60;99.90
48264;DHT22;34086;51.076;13.722;2023-02-16T01:38:40;0.60;99.90
48264;DHT22;34086;51.076;13.722;2023-02-16T01:39:41;0.60;99.90
48264;DHT22;34086;51.076;13.722;2023-02-16T01:40:44;0.60;99.90
48264;DHT22;34086;51.076;13.722;2023-02-16T01:42:02;0.60;99.90
48264;DHT22;34086;51.076;13.722;2023-02-16T01:44:27;0.60;99.90
48264;DHT22;34086;51.076;13.722;2023-02-16T01:45:34;0.60;99.90
48264;DHT22;34086;51.076;13.722;2023-02-16T01:46:38;0.60;99.90
48264;DHT22;34086;51.076;13.722;2023-02-16T01:47:49;0.70;99.90
48264;DHT22;34086;51.076;13.722;2023-02-16T01:48:51;0.60;99.90
48264;DHT22;34086;51.076;13.722;2023-02-16T01:49:51;0.60;99.90
48264;DHT22;34086;51.076;13.722;2023-02-16T01:52:14;0.60;99.90
48264;DHT22;34086;51.076;13.722;2023-02-16T01:53:36;0.60;99.90
48264;DHT22;34086;51.076;13.722;2023-02-16T01:55:04;0.60;99.90
48264;DHT22;34086;51.076;13.722;2023-02-16T01:56:31;0.60;99.90
48264;DHT22;34086;51.076;13.722;2023-02-16T01:57:45;0.50;99.90
48264;DHT22;34086;51.076;13.722;2023-02-16T01:58:49;0.50;99.90
48264;DHT22;34086;51.076;13.722;2023-02-16T02:02:02;0.50;99.90
48264;DHT22;34086;51.076;13.722;2023-02-16T02:03:06;0.50;99.90
48264;DHT22;34086;51.076;13.722;2023-02-16T02:04:41;0.50;99.90
48264;DHT22;34086;51.076;13.722;2023-02-16T02:06:02;0.40;99.90
48264;DHT22;34086;51.076;13.722;2023-02-16T02:07:03;0.40;99.90
48264;DHT22;34086;51.076;13.722;2023-02-16T02:09:49;0.40;99.90
48264;DHT22;34086;51.076;13.722;2023-02-16T02:13:52;0.40;99.90
48264;DHT22;34086;51.076;13.722;2023-02-16T02:14:55;0.40;99.90
48264;DHT22;34086;51.076;13.722;2023-02-16T02:15:58;0.40;99.90
48264;DHT22;34086;51.076;13.722;2023-02-16T02:17:02;0.40;99.90
48264;DHT22;34086;51.076;13.722;2023-02-16T02:18:06;0.40;99.90
48264;DHT22;34086;51.076;13.722;2023-02-16T02:19:06;0.40;99.90
48264;DHT22;34086;51.076;13.722;2023-02-16T02:21:59;0.40;99.90
48264;DHT22;34086;51.076;13.722;2023-02-16T02:25:28;0.50;99.90
48264;DHT22;34086;51.076;13.722;2023-02-16T02:28:27;0.40;99.90
48264;DHT22;34086;51.076;13.722;2023-02-16T02:32:46;0.40;99.90
48264;DHT22;34086;51.076;13.722;2023-02-16T02:34:03;0.40;99.90
48264;DHT22;34086;51.076;13.722;2023-02-16T02:36:49;0.40;99.90
48264;DHT22;34086;51.076;13.722;2023-02-16T02:38:15;0.40;99.90
48264;DHT22;34086;51.076;13.722;2023-02-16T02:39:38;0.40;99.90
48264;DHT22;34086;51.076;13.722;2023-02-16T02:41:00;0.40;99.90
48264;DHT22;34086;51.076;13.722;2023-02-16T02:42:24;0.40;99.90
48264;DHT22;34086;51.076;13.722;2023-02-16T02:45:13;0.40;99.90
48264;DHT22;34086;51.076;13.722;2023-02-16T02:46:26;0.40;99.90
48264;DHT22;34086;51.076;13.722;2023-02-16T02:47:41;0.50;99.90
48264;DHT22;34086;51.076;13.722;2023-02-16T02:48:42;0.40;99.90
48264;DHT22;34086;51.076;13.722;2023-02-16T02:49:53;0.40;99.90
48264;DHT22;34086;51.076;13.722;2023-02-16T02:50:58;0.40;99.90
48264;DHT22;34086;51.076;13.722;2023-02-16T02:52:19;0.40;99.90
48264;DHT22;34086;51.076;13.722;2023-02-16T02:53:20;0.40;99.90
48264;DHT22;34086;51.076;13.722;2023-02-16T02:54:24;0.40;99.90
48264;DHT22;34086;51.076;13.722;2023-02-16T02:56:02;0.40;99.90
48264;DHT22;34086;51.076;13.722;2023-02-16T02:57:44;0.40;99.90
48264;DHT22;34086;51.076;13.722;2023-02-16T02:59:07;0.40;99.90
48264;DHT22;34086;51.076;13.722;2023-02-16T03:00:39;0.40;99.90
48264;DHT22;34086;51.076;13.722;2023-02-16T03:01:48;0.40;99.90
48264;DHT22;34086;51.076;13.722;2023-02-16T03:02:52;0.40;99.90
48264;DHT22;34086;51.076;13.722;2023-02-16T03:03:55;0.40;99.90
48264;DHT22;34086;51.076;13.722;2023-02-16T03:04:58;0.40;99.90
48264;DHT22;34086;51.076;13.722;2023-02-16T03:06:19;0.30;99.90
48264;DHT22;34086;51.076;13.722;2023-02-16T03:07:22;0.30;99.90
48264;DHT22;34086;51.076;13.722;2023-02-16T03:08:45;0.30;99.90
48264;DHT22;34086;51.076;13.722;2023-02-16T03:09:47;0.30;99.90
48264;DHT22;34086;51.076;13.722;2023-02-16T03:11:14;0.30;99.90
48264;DHT22;34086;51.076;13.722;2023-02-16T03:12:34;0.30;99.90
48264;DHT22;34086;51.076;13.722;2023-02-16T03:13:57;0.30;99.90
48264;DHT22;34086;51.076;13.722;2023-02-16T03:15:00;0.30;99.90
48264;DHT22;34086;51.076;13.722;2023-02-16T03:16:06;0.30;99.90
48264;DHT22;34086;51.076;13.722;2023-02-16T03:17:13;0.20;99.90
48264;DHT22;34086;51.076;13.722;2023-02-16T03:18:34;0.30;99.90
48264;DHT22;34086;51.076;13.722;2023-02-16T03:19:55;0.30;99.90
48264;DHT22;34086;51.076;13.722;2023-02-16T03:21:15;0.30;99.90
48264;DHT22;34086;51.076;13.722;2023-02-16T03:22:36;0.30;99.90
48264;DHT22;34086;51.076;13.722;2023-02-16T03:23:55;0.30;99.90
48264;DHT22;34086;51.076;13.722;2023-02-16T03:25:16;0.30;99.90
48264;DHT22;34086;51.076;13.722;2023-02-16T03:26:36;0.30;99.90
48264;DHT22;34086;51.076;13.722;2023-02-16T03:27:59;0.30;99.90
48264;DHT22;34086;51.076;13.722;2023-02-16T03:29:20;0.30;99.90
48264;DHT22;34086;51.076;13.722;2023-02-16T03:30:23;0.30;99.90
48264;DHT22;34086;51.076;13.722;2023-02-16T03:31:30;0.20;99.90
48264;DHT22;34086;51.076;13.722;2023-02-16T03:32:31;0.20;99.90
48264;DHT22;34086;51.076;13.722;2023-02-16T03:33:32;0.20;99.90
48264;DHT22;34086;51.076;13.722;2023-02-16T03:34:34;0.30;99.90
48264;DHT22;34086;51.076;13.722;2023-02-16T03:35:35;0.30;99.90
48264;DHT22;34086;51.076;13.722;2023-02-16T03:36:39;0.30;99.90
48264;DHT22;34086;51.076;13.722;2023-02-16T03:37:41;0.30;99.90
48264;DHT22;34086;51.076;13.722;2023-02-16T03:38:42;0.30;99.90
48264;DHT22;34086;51.076;13.722;2023-02-16T03:39:43;0.30;99.90
48264;DHT22;34086;51.076;13.722;2023-02-16T03:41:02;0.30;99.90
48264;DHT22;34086;51.076;13.722;2023-02-16T03:42:03;0.30;99.90
48264;DHT22;34086;51.076;13.722;2023-02-16T03:43:06;0.30;99.90
48264;DHT22;34086;51.076;13.722;2023-02-16T03:44:07;0.30;99.90
48264;DHT22;34086;51.076;13.722;2023-02-16T03:45:08;0.20;99.90
48264;DHT22;34086;51.076;13.722;2023-02-16T03:46:08;0.30;99.90
48264;DHT22;34086;51.076;13.722;2023-02-16T03:47:09;0.20;99.90
48264;DHT22;34086;51.076;13.722;2023-02-16T03:48:10;0.20;99.90
48264;DHT22;34086;51.076;13.722;2023-02-16T03:49:11;0.20;99.90
48264;DHT22;34086;51.076;13.722;2023-02-16T03:50:12;0.20;99.90
48264;DHT22;34086;51.076;13.722;2023-02-16T03:51:12;0.20;99.90
48264;DHT22;34086;51.076;13.722;2023-02-16T03:52:13;0.20;99.90
48264;DHT22;34086;51.076;13.722;2023-02-16T03:53:13;0.20;99.90
48264;DHT22;34086;51.076;13.722;2023-02-16T03:54:14;0.20;99.90
48264;DHT22;34086;51.076;13.722;2023-02-16T03:55:15;0.20;99.90
48264;DHT22;34086;51.076;13.722;2023-02-16T03:56:15;0.20;99.90
48264;DHT22;34086;51.076;13.722;2023-02-16T03:57:16;0.20;99.90
48264;DHT22;34086;51.076;13.722;2023-02-16T03:58:20;0.20;99.90
48264;DHT22;34086;51.076;13.722;2023-02-16T03:59:21;0.20;99.90
48264;DHT22;34086;51.076;13.722;2023-02-16T04:00:21;0.20;99.90
48264;DHT22;34086;51.076;13.722;2023-02-16T04:01:22;0.20;99.90
48264;DHT22;34086;51.076;13.722;2023-02-16T04:02:22;0.20;99.90
48264;DHT22;34086;51.076;13.722;2023-02-16T04:03:23;0.20;99.90
48264;DHT22;34086;51.076;13.722;2023-02-16T04:04:24;0.20;99.90
48264;DHT22;34086;51.076;13.722;2023-02-16T04:05:25;0.20;99.90
48264;DHT22;34086;51.076;13.722;2023-02-16T04:06:25;0.20;99.90
48264;DHT22;34086;51.076;13.722;2023-02-16T04:07:26;0.20;99.90
48264;DHT22;34086;51.076;13.722;2023-02-16T04:08:27;0.20;99.90
48264;DHT22;34086;51.076;13.722;2023-02-16T04:09:27;0.20;99.90
48264;DHT22;34086;51.076;13.722;2023-02-16T04:10:28;0.20;99.90
48264;DHT22;34086;51.076;13.722;2023-02-16T04:11:28;0.20;99.90
48264;DHT22;34086;51.076;13.722;2023-02-16T04:12:48;0.20;99.90
48264;DHT22;34086;51.076;13.722;2023-02-16T04:13:48;0.20;99.90
48264;DHT22;34086;51.076;13.722;2023-02-16T04:14:49;0.20;99.90
48264;DHT22;34086;51.076;13.722;2023-02-16T04:15:49;0.20;99.90
48264;DHT22;34086;51.076;13.722;2023-02-16T04:16:50;0.20;99.90
48264;DHT22;34086;51.076;13.722;2023-02-16T04:17:51;0.20;99.90
48264;DHT22;34086;51.076;13.722;2023-02-16T04:18:52;0.20;99.90
48264;DHT22;34086;51.076;13.722;2023-02-16T04:19:52;0.20;99.90
48264;DHT22;34086;51.076;13.722;2023-02-16T04:20:53;0.10;99.90
48264;DHT22;34086;51.076;13.722;2023-02-16T04:21:53;0.10;99.90
48264;DHT22;34086;51.076;13.722;2023-02-16T04:22:55;0.10;99.90
48264;DHT22;34086;51.076;13.722;2023-02-16T04:23:55;0.20;99.90
48264;DHT22;34086;51.076;13.722;2023-02-16T04:24:56;0.20;99.90
48264;DHT22;34086;51.076;13.722;2023-02-16T04:25:56;0.20;99.90
48264;DHT22;34086;51.076;13.722;2023-02-16T04:26:57;0.20;99.90
48264;DHT22;34086;51.076;13.722;2023-02-16T04:27:58;0.10;99.90
48264;DHT22;34086;51.076;13.722;2023-02-16T04:28:58;0.10;99.90
48264;DHT22;34086;51.076;13.722;2023-02-16T04:29:59;0.20;99.90
48264;DHT22;34086;51.076;13.722;2023-02-16T04:30:59;0.10;99.90
48264;DHT22;34086;51.076;13.722;2023-02-16T04:32:00;0.10;99.90
48264;DHT22;34086;51.076;13.722;2023-02-16T04:33:01;0.10;99.90
48264;DHT22;34086;51.076;13.722;2023-02-16T04:34:01;0.10;99.90
48264;DHT22;34086;51.076;13.722;2023-02-16T04:35:02;0.10;99.90
48264;DHT22;34086;51.076;13.722;2023-02-16T04:36:03;0.10;99.90
48264;DHT22;34086;51.076;13.722;2023-02-16T04:37:04;0.10;99.90
48264;DHT22;34086;51.076;13.722;2023-02-16T04:38:05;0.10;99.90
48264;DHT22;34086;51.076;13.722;2023-02-16T04:39:05;0.10;99.90
48264;DHT22;34086;51.076;13.722;2023-02-16T04:40:07;0.10;99.90
48264;DHT22;34086;51.076;13.722;2023-02-16T04:41:08;0.10;99.90
48264;DHT22;34086;51.076;13.722;2023-02-16T04:42:08;0.00;99.90
48264;DHT22;34086;51.076;13.722;2023-02-16T04:43:09;0.10;99.90
48264;DHT22;34086;51.076;13.722;2023-02-16T04:44:09;0.00;99.90
48264;DHT22;34086;51.076;13.722;2023-02-16T04:45:11;0.00;99.90
48264;DHT22;34086;51.076;13.722;2023-02-16T04:46:12;0.00;99.90
48264;DHT22;34086;51.076;13.722;2023-02-16T04:47:13;0.00;99.90
48264;DHT22;34086;51.076;13.722;2023-02-16T04:48:13;0.00;99.90
48264;DHT22;34086;51.076;13.722;2023-02-16T04:49:14;0.00;99.90
48264;DHT22;34086;51.076;13.722;2023-02-16T04:50:15;0.00;99.90
48264;DHT22;34086;51.076;13.722;2023-02-16T04:51:15;0.00;99.90
48264;DHT22;34086;51.076;13.722;2023-02-16T04:52:16;0.00;99.90
48264;DHT22;34086;51.076;13.722;2023-02-16T04:53:16;0.00;99.90
48264;DHT22;34086;51.076;13.722;2023-02-16T04:54:17;0.00;99.90
48264;DHT22;34086;51.076;13.722;2023-02-16T04:55:17;0.00;99.90
48264;DHT22;34086;51.076;13.722;2023-02-16T04:56:18;0.00;99.90
48264;DHT22;34086;51.076;13.722;2023-02-16T04:57:18;0.00;99.90
48264;DHT22;34086;51.076;13.722;2023-02-16T04:58:21;0.00;99.90
48264;DHT22;34086;51.076;13.722;2023-02-16T04:59:22;0.00;99.90
48264;DHT22;34086;51.076;13.722;2023-02-16T05:00:23;0.00;99.90
48264;DHT22;34086;51.076;13.722;2023-02-16T05:01:25;0.00;99.90
48264;DHT22;34086;51.076;13.722;2023-02-16T05:02:26;0.00;99.90
48264;DHT22;34086;51.076;13.722;2023-02-16T05:03:27;0.00;99.90
48264;DHT22;34086;51.076;13.722;2023-02-16T05:04:28;0.00;99.90
48264;DHT22;34086;51.076;13.722;2023-02-16T05:05:28;-0.10;99.90
48264;DHT22;34086;51.076;13.722;2023-02-16T05:06:30;0.00;99.90
48264;DHT22;34086;51.076;13.722;2023-02-16T05:07:31;0.00;99.90
48264;DHT22;34086;51.076;13.722;2023-02-16T05:08:32;-0.10;99.90
48264;DHT22;34086;51.076;13.722;2023-02-16T05:09:32;-0.10;99.90
48264;DHT22;34086;51.076;13.722;2023-02-16T05:10:33;-0.10;99.90
48264;DHT22;34086;51.076;13.722;2023-02-16T05:11:33;-0.10;99.90
48264;DHT22;34086;51.076;13.722;2023-02-16T05:12:53;0.00;99.90
48264;DHT22;34086;51.076;13.722;2023-02-16T05:15:41;0.00;99.90
48264;DHT22;34086;51.076;13.722;2023-02-16T05:16:42;0.00;99.90
48264;DHT22;34086;51.076;13.722;2023-02-16T05:17:43;0.00;99.90
48264;DHT22;34086;51.076;13.722;2023-02-16T05:18:44;0.00;99.90
48264;DHT22;34086;51.076;13.722;2023-02-16T05:19:46;0.00;99.90
48264;DHT22;34086;51.076;13.722;2023-02-16T05:20:47;0.00;99.90
48264;DHT22;34086;51.076;13.722;2023-02-16T05:22:07;0.00;99.90
48264;DHT22;34086;51.076;13.722;2023-02-16T05:23:08;0.00;99.90
48264;DHT22;34086;51.076;13.722;2023-02-16T05:24:10;0.00;99.90
48264;DHT22;34086;51.076;13.722;2023-02-16T05:25:11;0.00;99.90
48264;DHT22;34086;51.076;13.722;2023-02-16T05:26:11;0.00;99.90
48264;DHT22;34086;51.076;13.722;2023-02-16T05:27:14;0.00;99.90
48264;DHT22;34086;51.076;13.722;2023-02-16T05:28:15;0.00;99.90
48264;DHT22;34086;51.076;13.722;2023-02-16T05:29:15;0.00;99.90
48264;DHT22;34086;51.076;13.722;2023-02-16T05:30:16;0.00;99.90
48264;DHT22;34086;51.076;13.722;2023-02-16T05:31:16;0.00;99.90
48264;DHT22;34086;51.076;13.722;2023-02-16T05:32:17;0.00;99.90
48264;DHT22;34086;51.076;13.722;2023-02-16T05:33:18;0.00;99.90
48264;DHT22;34086;51.076;13.722;2023-02-16T05:34:19;0.00;99.90
48264;DHT22;34086;51.076;13.722;2023-02-16T05:35:19;0.00;99.90
48264;DHT22;34086;51.076;13.722;2023-02-16T05:36:21;0.00;99.90
48264;DHT22;34086;51.076;13.722;2023-02-16T05:37:22;0.00;99.90
48264;DHT22;34086;51.076;13.722;2023-02-16T05:38:22;0.00;99.90
48264;DHT22;34086;51.076;13.722;2023-02-16T05:39:23;0.00;99.90
48264;DHT22;34086;51.076;13.722;2023-02-16T05:40:23;0.00;99.90
48264;DHT22;34086;51.076;13.722;2023-02-16T05:41:24;0.00;99.90
48264;DHT22;34086;51.076;13.722;2023-02-16T05:42:24;0.00;99.90
48264;DHT22;34086;51.076;13.722;2023-02-16T05:43:25;0.00;99.90
48264;DHT22;34086;51.076;13.722;2023-02-16T05:44:26;0.00;99.90
48264;DHT22;34086;51.076;13.722;2023-02-16T05:45:26;0.00;99.90
48264;DHT22;34086;51.076;13.722;2023-02-16T05:46:29;0.00;99.90
48264;DHT22;34086;51.076;13.722;2023-02-16T05:47:31;0.00;99.90
48264;DHT22;34086;51.076;13.722;2023-02-16T05:48:32;0.00;99.90
48264;DHT22;34086;51.076;13.722;2023-02-16T05:49:33;0.00;99.90
48264;DHT22;34086;51.076;13.722;2023-02-16T05:50:33;0.00;99.90
48264;DHT22;34086;51.076;13.722;2023-02-16T05:51:35;0.00;99.90
48264;DHT22;34086;51.076;13.722;2023-02-16T05:52:36;0.00;99.90
48264;DHT22;34086;51.076;13.722;2023-02-16T05:53:37;0.00;99.90
48264;DHT22;34086;51.076;13.722;2023-02-16T05:54:37;0.00;99.90
48264;DHT22;34086;51.076;13.722;2023-02-16T05:55:38;0.00;99.90
48264;DHT22;34086;51.076;13.722;2023-02-16T05:56:38;0.00;99.90
48264;DHT22;34086;51.076;13.722;2023-02-16T05:57:39;0.00;99.90
48264;DHT22;34086;51.076;13.722;2023-02-16T05:58:39;0.00;99.90
48264;DHT22;34086;51.076;13.722;2023-02-16T05:59:40;0.10;99.90
48264;DHT22;34086;51.076;13.722;2023-02-16T06:00:40;0.00;99.90
48264;DHT22;34086;51.076;13.722;2023-02-16T06:01:42;0.00;99.90
48264;DHT22;34086;51.076;13.722;2023-02-16T06:02:42;0.10;99.90
48264;DHT22;34086;51.076;13.722;2023-02-16T06:03:43;0.10;99.90
48264;DHT22;34086;51.076;13.722;2023-02-16T06:04:43;0.10;99.90
48264;DHT22;34086;51.076;13.722;2023-02-16T06:05:44;0.10;99.90
48264;DHT22;34086;51.076;13.722;2023-02-16T06:06:44;0.10;99.90
48264;DHT22;34086;51.076;13.722;2023-02-16T06:07:45;0.00;99.90
48264;DHT22;34086;51.076;13.722;2023-02-16T06:08:46;0.00;99.90
48264;DHT22;34086;51.076;13.722;2023-02-16T06:09:46;0.00;99.90
48264;DHT22;34086;51.076;13.722;2023-02-16T06:10:51;0.00;99.90
48264;DHT22;34086;51.076;13.722;2023-02-16T06:11:51;0.10;99.90
48264;DHT22;34086;51.076;13.722;2023-02-16T06:12:52;0.00;99.90
48264;DHT22;34086;51.076;13.722;2023-02-16T06:13:53;0.00;99.90
48264;DHT22;34086;51.076;13.722;2023-02-16T06:14:58;0.00;99.90
48264;DHT22;34086;51.076;13.722;2023-02-16T06:15:59;0.00;99.90
48264;DHT22;34086;51.076;13.722;2023-02-16T06:17:00;0.00;99.90
48264;DHT22;34086;51.076;13.722;2023-02-16T06:18:01;0.00;99.90
48264;DHT22;34086;51.076;13.722;2023-02-16T06:19:02;0.10;99.90
48264;DHT22;34086;51.076;13.722;2023-02-16T06:20:04;0.00;99.90
48264;DHT22;34086;51.076;13.722;2023-02-16T06:21:04;0.00;99.90
48264;DHT22;34086;51.076;13.722;2023-02-16T06:22:05;0.00;99.90
48264;DHT22;34086;51.076;13.722;2023-02-16T06:23:07;0.10;99.90
48264;DHT22;34086;51.076;13.722;2023-02-16T06:24:10;0.00;99.90
48264;DHT22;34086;51.076;13.722;2023-02-16T06:25:11;0.00;99.90
48264;DHT22;34086;51.076;13.722;2023-02-16T06:26:11;0.00;99.90
48264;DHT22;34086;51.076;13.722;2023-02-16T06:27:12;0.00;99.90
48264;DHT22;34086;51.076;13.722;2023-02-16T06:28:13;0.00;99.90
48264;DHT22;34086;51.076;13.722;2023-02-16T06:29:13;0.00;99.90
48264;DHT22;34086;51.076;13.722;2023-02-16T06:30:14;0.00;99.90
48264;DHT22;34086;51.076;13.722;2023-02-16T06:31:14;0.00;99.90
48264;DHT22;34086;51.076;13.722;2023-02-16T06:32:15;0.00;99.90
48264;DHT22;34086;51.076;13.722;2023-02-16T06:33:16;0.00;99.90
48264;DHT22;34086;51.076;13.722;2023-02-16T06:34:16;0.00;99.90
48264;DHT22;34086;51.076;13.722;2023-02-16T06:35:17;0.00;99.90
48264;DHT22;34086;51.076;13.722;2023-02-16T06:36:18;0.00;99.90
48264;DHT22;34086;51.076;13.722;2023-02-16T06:37:18;0.00;99.90
48264;DHT22;34086;51.076;13.722;2023-02-16T06:38:19;0.00;99.90
48264;DHT22;34086;51.076;13.722;2023-02-16T06:39:20;0.10;99.90
48264;DHT22;34086;51.076;13.722;2023-02-16T06:40:20;0.10;99.90
48264;DHT22;34086;51.076;13.722;2023-02-16T06:41:21;0.10;99.90
48264;DHT22;34086;51.076;13.722;2023-02-16T06:42:30;0.10;99.90
48264;DHT22;34086;51.076;13.722;2023-02-16T06:43:31;0.10;99.90
48264;DHT22;34086;51.076;13.722;2023-02-16T06:44:32;0.10;99.90
48264;DHT22;34086;51.076;13.722;2023-02-16T06:45:32;0.10;99.90
48264;DHT22;34086;51.076;13.722;2023-02-16T06:46:33;0.10;99.90
48264;DHT22;34086;51.076;13.722;2023-02-16T06:47:34;0.10;99.90
48264;DHT22;34086;51.076;13.722;2023-02-16T06:48:35;0.10;99.90
48264;DHT22;34086;51.076;13.722;2023-02-16T06:49:36;0.10;99.90
48264;DHT22;34086;51.076;13.722;2023-02-16T06:50:36;0.20;99.90
48264;DHT22;34086;51.076;13.722;2023-02-16T06:51:37;0.20;99.90
48264;DHT22;34086;51.076;13.722;2023-02-16T06:52:38;0.20;99.90
48264;DHT22;34086;51.076;13.722;2023-02-16T06:53:38;0.20;99.90
48264;DHT22;34086;51.076;13.722;2023-02-16T06:54:39;0.20;99.90
48264;DHT22;34086;51.076;13.722;2023-02-16T06:55:39;0.20;99.90
48264;DHT22;34086;51.076;13.722;2023-02-16T06:56:40;0.20;99.90
48264;DHT22;34086;51.076;13.722;2023-02-16T06:57:40;0.30;99.90
48264;DHT22;34086;51.076;13.722;2023-02-16T06:58:41;0.30;99.90
48264;DHT22;34086;51.076;13.722;2023-02-16T06:59:42;0.30;99.90
48264;DHT22;34086;51.076;13.722;2023-02-16T07:00:42;0.30;99.90
48264;DHT22;34086;51.076;13.722;2023-02-16T07:01:43;0.30;99.90
48264;DHT22;34086;51.076;13.722;2023-02-16T07:02:43;0.30;99.90
48264;DHT22;34086;51.076;13.722;2023-02-16T07:03:45;0.30;99.90
48264;DHT22;34086;51.076;13.722;2023-02-16T07:04:46;0.40;99.90
48264;DHT22;34086;51.076;13.722;2023-02-16T07:05:48;0.40;99.90
48264;DHT22;34086;51.076;13.722;2023-02-16T07:06:48;0.40;99.90
48264;DHT22;34086;51.076;13.722;2023-02-16T07:07:49;0.40;99.90
48264;DHT22;34086;51.076;13.722;2023-02-16T07:08:50;0.40;99.90
48264;DHT22;34086;51.076;13.722;2023-02-16T07:09:51;0.40;99.90